Time;durP1;ratioP1;P1;durP2;ratioP2;P2;SDS_P1;SDS_P2;PMS_P1;PMS_P2;Temp;Humidity;BMP_temperature;BMP_pressure;BME280_temperature;BME280_humidity;BME280_pressure;Samples;Min_cycle;Max_cycle;Signal;HPM_P1;HPM_P2
2022/09/26 00:00:04;;;;;;;2.35;0.60;;;12.30;99.90;;;;;;6065409;23;20104;-85
2022/09/26 00:02:31;;;;;;;0.95;0.60;;;12.30;99.90;;;;;;6088382;23;20038;-85
2022/09/26 00:04:58;;;;;;;1.02;0.57;;;12.30;99.90;;;;;;6063553;23;20048;-85
2022/09/26 00:07:24;;;;;;;1.17;0.47;;;12.20;99.90;;;;;;6062780;23;20093;-85
2022/09/26 00:09:52;;;;;;;0.70;0.50;;;12.20;99.90;;;;;;6063657;23;20113;-85
2022/09/26 00:12:19;;;;;;;1.35;0.60;;;12.30;99.90;;;;;;6064700;23;20081;-85
2022/09/26 00:14:46;;;;;;;1.08;0.38;;;12.20;99.90;;;;;;6065481;23;20081;-85
2022/09/26 00:17:13;;;;;;;1.33;0.52;;;12.20;99.90;;;;;;6063323;23;20049;-85
2022/09/26 00:19:40;;;;;;;0.60;0.40;;;12.20;99.90;;;;;;6063173;23;20022;-85
2022/09/26 00:22:07;;;;;;;0.85;0.40;;;12.20;99.90;;;;;;6063228;23;20034;-85
2022/09/26 00:24:34;;;;;;;0.90;0.60;;;12.20;99.90;;;;;;6065047;23;20037;-85
2022/09/26 00:27:00;;;;;;;1.27;0.60;;;12.20;99.90;;;;;;6063920;23;20089;-85
2022/09/26 00:29:27;;;;;;;0.50;0.40;;;12.20;99.90;;;;;;6063415;23;20195;-86
2022/09/26 00:31:54;;;;;;;1.58;0.60;;;12.20;99.90;;;;;;6063288;23;20028;-86
2022/09/26 00:34:21;;;;;;;0.82;0.70;;;12.20;99.90;;;;;;6063994;23;20465;-85
2022/09/26 00:36:48;;;;;;;0.70;0.40;;;12.20;99.90;;;;;;6062773;23;20037;-86
2022/09/26 00:39:15;;;;;;;0.52;0.40;;;12.10;99.90;;;;;;6064207;23;20028;-86
2022/09/26 00:41:42;;;;;;;1.10;0.70;;;12.10;99.90;;;;;;6065328;23;20020;-87
2022/09/26 00:44:40;;;;;;;0.82;0.52;;;12.20;99.90;;;;;;6065263;23;20026;-86
2022/09/26 00:47:25;;;;;;;0.82;0.43;;;12.20;99.90;;;;;;6088259;23;20018;-86
2022/09/26 00:50:17;;;;;;;1.73;0.60;;;12.10;99.90;;;;;;6068225;23;20283;-86
2022/09/26 00:52:55;;;;;;;1.25;0.60;;;12.10;99.90;;;;;;6065335;23;20403;-87
2022/09/26 00:55:22;;;;;;;1.55;0.85;;;12.10;99.90;;;;;;6091390;23;20334;-86
2022/09/26 00:57:56;;;;;;;1.13;0.60;;;12.00;99.90;;;;;;6068358;23;20095;-85
2022/09/26 01:00:23;;;;;;;1.75;0.93;;;12.00;99.90;;;;;;6072914;23;20033;-85
2022/09/26 01:02:50;;;;;;;0.38;0.35;;;12.00;99.90;;;;;;6072904;23;20030;-86
2022/09/26 01:05:18;;;;;;;1.38;0.80;;;11.90;99.90;;;;;;6067467;23;20101;-85
2022/09/26 01:07:45;;;;;;;1.05;0.50;;;11.90;99.90;;;;;;6067042;23;20021;-85
2022/09/26 01:10:14;;;;;;;0.75;0.50;;;11.90;99.90;;;;;;6070376;23;20033;-85
2022/09/26 01:12:41;;;;;;;1.13;0.60;;;11.80;99.90;;;;;;6071380;23;20034;-86
2022/09/26 01:15:08;;;;;;;0.68;0.43;;;11.80;99.90;;;;;;6073372;23;20033;-86
2022/09/26 01:17:40;;;;;;;1.40;0.63;;;11.80;99.90;;;;;;6066415;23;20086;-86
2022/09/26 01:20:27;;;;;;;1.00;0.60;;;11.80;99.90;;;;;;6061620;23;20101;-86
2022/09/26 01:23:15;;;;;;;2.47;0.82;;;11.80;99.90;;;;;;6086327;23;20230;-86
2022/09/26 01:26:20;;;;;;;0.77;0.50;;;11.80;99.90;;;;;;6085983;23;20450;-86
2022/09/26 01:29:06;;;;;;;1.63;0.60;;;11.80;99.90;;;;;;6086002;23;20218;-85
2022/09/26 01:31:35;;;;;;;0.93;0.55;;;11.80;99.90;;;;;;6088225;23;20045;-87
2022/09/26 01:34:08;;;;;;;1.67;0.32;;;11.80;99.90;;;;;;6093914;23;20059;-87
2022/09/26 01:36:49;;;;;;;0.85;0.52;;;11.80;99.90;;;;;;6093456;23;20046;-86
2022/09/26 01:39:34;;;;;;;0.45;0.43;;;11.80;99.90;;;;;;6068283;23;20026;-86
2022/09/26 01:42:25;;;;;;;0.75;0.45;;;11.90;99.90;;;;;;6092443;23;20075;-85
2022/09/26 01:45:06;;;;;;;0.50;0.38;;;11.90;99.90;;;;;;6090943;23;20673;-85
2022/09/26 01:47:41;;;;;;;1.25;0.55;;;11.90;99.90;;;;;;6065460;23;20549;-85
2022/09/26 01:50:22;;;;;;;0.85;0.60;;;11.90;99.90;;;;;;6066184;23;20018;-85
2022/09/26 01:53:29;;;;;;;0.77;0.45;;;11.80;99.90;;;;;;6066732;23;20040;-86
2022/09/26 01:56:15;;;;;;;1.23;0.50;;;11.80;99.90;;;;;;6093083;23;20033;-86
2022/09/26 01:58:49;;;;;;;0.70;0.50;;;11.80;99.90;;;;;;6067050;23;20105;-86
2022/09/26 02:01:16;;;;;;;0.77;0.40;;;11.80;99.90;;;;;;6066248;23;20036;-86
2022/09/26 02:03:48;;;;;;;2.00;0.70;;;11.80;99.90;;;;;;6066089;23;20219;-86
2022/09/26 02:06:21;;;;;;;1.50;0.55;;;11.80;99.90;;;;;;6066193;23;20015;-86
2022/09/26 02:08:51;;;;;;;1.00;0.40;;;11.80;99.90;;;;;;6066527;23;20077;-86
2022/09/26 02:11:18;;;;;;;0.63;0.25;;;11.80;99.90;;;;;;6090116;23;20112;-87
2022/09/26 02:13:50;;;;;;;1.25;0.70;;;11.80;99.90;;;;;;6066217;23;20018;-85
2022/09/26 02:16:26;;;;;;;0.55;0.43;;;11.70;99.90;;;;;;6066327;23;20050;-86
2022/09/26 02:18:58;;;;;;;0.50;0.40;;;11.80;99.90;;;;;;6066375;23;20030;-87
2022/09/26 02:21:25;;;;;;;0.98;0.40;;;11.80;99.90;;;;;;6065796;23;20029;-87
2022/09/26 02:23:53;;;;;;;0.80;0.43;;;11.80;99.90;;;;;;6066180;23;20018;-86
2022/09/26 02:26:20;;;;;;;1.05;0.50;;;11.70;99.90;;;;;;6065673;23;20447;-85
2022/09/26 02:28:47;;;;;;;0.55;0.55;;;11.60;99.90;;;;;;6066475;23;20101;-85
2022/09/26 02:31:19;;;;;;;1.30;0.77;;;11.50;99.90;;;;;;6066134;23;20028;-87
2022/09/26 02:33:50;;;;;;;0.77;0.60;;;11.50;99.90;;;;;;6067445;23;20305;-87
2022/09/26 02:36:20;;;;;;;1.00;0.50;;;11.30;99.90;;;;;;6067009;23;20075;-87
2022/09/26 02:38:47;;;;;;;1.42;0.70;;;11.30;99.90;;;;;;6066195;23;20015;-86
2022/09/26 02:41:42;;;;;;;1.52;0.43;;;11.30;99.90;;;;;;6065991;23;20128;-87
2022/09/26 02:44:34;;;;;;;1.83;0.70;;;11.30;99.90;;;;;;6093748;23;20050;-86
2022/09/26 02:47:07;;;;;;;0.47;0.40;;;11.30;99.90;;;;;;6089585;23;20221;-85
2022/09/26 02:49:52;;;;;;;0.57;0.45;;;11.30;99.90;;;;;;6090262;23;20108;-87
2022/09/26 02:52:31;;;;;;;0.52;0.40;;;11.30;99.90;;;;;;6089699;23;20097;-86
2022/09/26 02:55:13;;;;;;;1.67;0.60;;;11.30;99.90;;;;;;6089216;23;20445;-85
2022/09/26 02:57:49;;;;;;;0.90;0.47;;;11.30;99.90;;;;;;6065701;23;20029;-86
2022/09/26 03:00:24;;;;;;;1.17;0.77;;;11.30;99.90;;;;;;6089164;23;20350;-86
2022/09/26 03:03:09;;;;;;;0.77;0.50;;;11.30;99.90;;;;;;6065580;23;20045;-87
2022/09/26 03:05:36;;;;;;;1.83;0.80;;;11.40;99.90;;;;;;6089651;23;20137;-85
2022/09/26 03:08:14;;;;;;;1.65;0.60;;;11.40;99.90;;;;;;6065533;23;20137;-85
2022/09/26 03:10:41;;;;;;;1.90;0.65;;;11.40;99.90;;;;;;6065624;23;20638;-87
2022/09/26 03:13:12;;;;;;;2.42;0.60;;;11.50;99.90;;;;;;6065485;23;20019;-86
2022/09/26 03:15:40;;;;;;;1.05;0.70;;;11.50;99.90;;;;;;6066380;23;20363;-86
2022/09/26 03:18:09;;;;;;;0.90;0.75;;;11.50;99.90;;;;;;6065602;23;20114;-85
2022/09/26 03:20:36;;;;;;;0.90;0.50;;;11.50;99.90;;;;;;6066255;23;20391;-86
2022/09/26 03:23:03;;;;;;;1.08;0.60;;;11.60;99.90;;;;;;6066017;23;20041;-86
2022/09/26 03:25:29;;;;;;;1.00;0.63;;;11.60;99.90;;;;;;6065846;23;20029;-86
2022/09/26 03:27:58;;;;;;;2.03;0.68;;;11.60;99.90;;;;;;6066350;23;20432;-87
2022/09/26 03:30:25;;;;;;;0.77;0.50;;;11.60;99.90;;;;;;6066569;23;20030;-86
2022/09/26 03:32:52;;;;;;;1.55;0.50;;;11.60;99.90;;;;;;6065053;23;20676;-86
2022/09/26 03:35:19;;;;;;;0.85;0.50;;;11.70;99.90;;;;;;6066064;23;20018;-86
2022/09/26 03:37:46;;;;;;;1.77;0.70;;;11.70;99.90;;;;;;6065346;23;20096;-86
2022/09/26 03:40:13;;;;;;;2.05;0.77;;;11.70;99.90;;;;;;6065926;23;20029;-86
2022/09/26 03:42:40;;;;;;;1.15;0.47;;;11.70;99.90;;;;;;6066831;23;20075;-89
2022/09/26 03:45:09;;;;;;;2.03;0.73;;;11.60;99.90;;;;;;6067472;23;20099;-93
2022/09/26 03:47:37;;;;;;;2.13;0.50;;;11.40;99.90;;;;;;6067035;23;20068;-90
2022/09/26 03:50:05;;;;;;;0.60;0.45;;;11.30;99.90;;;;;;6068206;23;20041;-91
2022/09/26 03:52:32;;;;;;;1.33;0.70;;;11.20;99.90;;;;;;6067089;23;20021;-90
2022/09/26 03:54:58;;;;;;;2.85;1.10;;;11.10;99.90;;;;;;6067435;23;20019;-89
2022/09/26 03:57:29;;;;;;;1.23;0.50;;;11.00;99.90;;;;;;6070236;23;20093;-93
2022/09/26 04:00:16;;;;;;;1.20;0.70;;;11.00;99.90;;;;;;6087134;23;20021;-94
2022/09/26 04:03:04;;;;;;;0.93;0.45;;;10.90;99.90;;;;;;6093205;23;20109;-91
2022/09/26 04:05:31;;;;;;;1.52;0.57;;;10.90;99.90;;;;;;6093342;23;20109;-92
2022/09/26 04:08:00;;;;;;;1.00;0.50;;;11.00;99.90;;;;;;6066753;23;20074;-93
2022/09/26 04:10:26;;;;;;;1.00;0.50;;;10.90;99.90;;;;;;6068177;23;20086;-92
2022/09/26 04:12:55;;;;;;;0.85;0.70;;;10.90;99.90;;;;;;6069066;23;20082;-92
2022/09/26 04:15:22;;;;;;;0.90;0.47;;;10.90;99.90;;;;;;6068254;23;20046;-88
2022/09/26 04:17:49;;;;;;;1.77;0.60;;;10.90;99.90;;;;;;6066657;23;20022;-88
2022/09/26 04:20:16;;;;;;;1.45;0.85;;;11.00;99.90;;;;;;6090074;23;20033;-85
2022/09/26 04:22:43;;;;;;;0.73;0.50;;;11.00;99.90;;;;;;6063823;23;20023;-85
2022/09/26 04:25:11;;;;;;;0.70;0.38;;;10.90;99.90;;;;;;6087174;23;20026;-83
2022/09/26 04:27:38;;;;;;;0.30;0.30;;;11.00;99.90;;;;;;6087775;23;20023;-83
2022/09/26 04:30:05;;;;;;;0.82;0.40;;;11.00;99.90;;;;;;6087273;23;20343;-84
2022/09/26 04:32:32;;;;;;;0.68;0.30;;;11.00;99.90;;;;;;6085727;23;20376;-83
2022/09/26 04:34:59;;;;;;;0.70;0.47;;;11.00;99.90;;;;;;6086265;23;20340;-83
2022/09/26 04:37:26;;;;;;;0.70;0.47;;;11.10;99.90;;;;;;6061828;23;20014;-83
2022/09/26 04:39:54;;;;;;;0.20;0.20;;;11.20;99.90;;;;;;6086269;23;20106;-82
2022/09/26 04:42:23;;;;;;;0.68;0.60;;;11.20;99.90;;;;;;6085935;23;20444;-83
2022/09/26 04:44:50;;;;;;;0.65;0.40;;;11.20;99.90;;;;;;6091387;23;20037;-89
2022/09/26 04:47:17;;;;;;;1.33;0.68;;;11.20;99.90;;;;;;6068289;23;20357;-88
2022/09/26 04:49:45;;;;;;;0.47;0.40;;;11.30;99.90;;;;;;6092022;23;20482;-87
2022/09/26 04:52:13;;;;;;;0.52;0.38;;;11.30;99.90;;;;;;6091256;23;20030;-89
2022/09/26 04:54:43;;;;;;;0.65;0.38;;;11.30;99.90;;;;;;6091646;23;20038;-91
2022/09/26 04:57:13;;;;;;;0.68;0.38;;;11.30;99.90;;;;;;6091138;23;20018;-87
2022/09/26 04:59:45;;;;;;;0.80;0.60;;;11.30;99.90;;;;;;6090953;23;20023;-86
2022/09/26 05:02:12;;;;;;;0.50;0.30;;;11.40;99.90;;;;;;6066896;23;20057;-87
2022/09/26 05:04:39;;;;;;;0.60;0.40;;;11.40;99.90;;;;;;6088595;23;20530;-85
2022/09/26 05:07:07;;;;;;;0.90;0.47;;;11.40;99.90;;;;;;6089812;23;20034;-86
2022/09/26 05:09:34;;;;;;;0.77;0.40;;;11.50;99.90;;;;;;6067058;23;20064;-86
2022/09/26 05:12:02;;;;;;;0.30;0.30;;;11.50;99.90;;;;;;6091707;23;20022;-86
2022/09/26 05:14:29;;;;;;;0.50;0.30;;;11.60;99.90;;;;;;6067240;23;20126;-87
2022/09/26 05:16:56;;;;;;;0.75;0.43;;;11.60;99.90;;;;;;6091153;23;20376;-88
2022/09/26 05:19:23;;;;;;;0.85;0.30;;;11.60;99.90;;;;;;6066956;23;20175;-86
2022/09/26 05:21:50;;;;;;;0.52;0.38;;;11.60;99.90;;;;;;6090083;23;20121;-87
2022/09/26 05:27:05;;;;;;;0.50;0.30;;;11.70;99.90;;;;;;6085804;23;20109;-81
2022/09/26 05:29:32;;;;;;;0.75;0.38;;;11.80;99.90;;;;;;6084472;23;20030;-82
2022/09/26 05:32:00;;;;;;;0.55;0.45;;;11.80;99.90;;;;;;6080512;23;20042;-82
2022/09/26 05:34:27;;;;;;;1.17;0.65;;;11.80;99.90;;;;;;6056381;23;20073;-82
2022/09/26 05:36:55;;;;;;;0.40;0.40;;;11.80;99.90;;;;;;6056249;23;20030;-83
2022/09/26 05:42:09;;;;;;;0.70;0.40;;;12.00;99.90;;;;;;6081866;23;20054;-83
2022/09/26 05:44:38;;;;;;;0.75;0.40;;;12.00;99.90;;;;;;6086152;23;20041;-86
2022/09/26 05:47:06;;;;;;;0.52;0.28;;;12.00;99.90;;;;;;6058392;23;20022;-85
2022/09/26 05:49:34;;;;;;;1.90;0.30;;;12.10;99.90;;;;;;6082826;23;20238;-85
2022/09/26 05:52:02;;;;;;;0.30;0.30;;;12.10;99.90;;;;;;6081393;23;20079;-86
2022/09/26 05:54:30;;;;;;;0.57;0.40;;;12.10;99.90;;;;;;6059886;23;20173;-88
2022/09/26 05:56:57;;;;;;;1.73;0.45;;;12.10;99.90;;;;;;6084345;23;20034;-89
2022/09/26 05:59:24;;;;;;;1.27;0.40;;;12.20;99.90;;;;;;6084106;23;20053;-86
2022/09/26 06:01:51;;;;;;;0.55;0.30;;;12.20;99.90;;;;;;6082397;23;20022;-85
2022/09/26 06:04:18;;;;;;;1.52;0.40;;;12.30;99.90;;;;;;6084789;23;20117;-87
2022/09/26 06:06:47;;;;;;;0.68;0.40;;;12.20;99.90;;;;;;6060286;23;20416;-88
2022/09/26 06:09:14;;;;;;;1.20;0.30;;;12.30;99.90;;;;;;6086191;23;20594;-87
2022/09/26 06:11:44;;;;;;;0.95;0.40;;;12.30;99.90;;;;;;6061707;23;20340;-88
2022/09/26 06:14:13;;;;;;;0.47;0.30;;;12.30;99.90;;;;;;6081338;23;20022;-87
2022/09/26 06:16:40;;;;;;;1.75;0.55;;;12.40;99.90;;;;;;6081560;23;20454;-87
2022/09/26 06:19:07;;;;;;;0.80;0.40;;;12.40;99.90;;;;;;6060183;23;20019;-88
2022/09/26 06:21:38;;;;;;;0.25;0.20;;;12.40;99.90;;;;;;6081714;23;20406;-88
2022/09/26 06:24:05;;;;;;;0.88;0.47;;;12.50;99.90;;;;;;6058169;23;20054;-86
2022/09/26 06:26:32;;;;;;;0.52;0.20;;;12.50;99.90;;;;;;6081670;23;20032;-87
2022/09/26 06:28:59;;;;;;;0.38;0.38;;;12.50;99.90;;;;;;6058189;23;20029;-87
2022/09/26 06:31:26;;;;;;;0.55;0.40;;;12.50;99.90;;;;;;6057222;23;20018;-87
2022/09/26 06:33:54;;;;;;;0.57;0.40;;;12.50;99.90;;;;;;6058151;23;20026;-87
2022/09/26 06:36:21;;;;;;;0.50;0.22;;;12.50;99.90;;;;;;6057705;23;20450;-86
2022/09/26 06:38:49;;;;;;;0.65;0.38;;;12.50;99.90;;;;;;6056657;23;20022;-87
2022/09/26 06:41:16;;;;;;;0.30;0.30;;;12.50;99.90;;;;;;6058025;23;20295;-87
2022/09/26 06:43:44;;;;;;;0.45;0.20;;;12.60;99.90;;;;;;6057909;23;20025;-86
2022/09/26 06:46:11;;;;;;;0.47;0.30;;;12.60;99.90;;;;;;6057640;23;20026;-86
2022/09/26 06:48:38;;;;;;;0.35;0.30;;;12.60;99.90;;;;;;6055820;23;20475;-86
2022/09/26 06:51:05;;;;;;;0.35;0.30;;;12.60;99.90;;;;;;6056633;23;20085;-85
2022/09/26 06:53:33;;;;;;;1.48;0.55;;;12.60;99.90;;;;;;6055828;23;20026;-86
2022/09/26 06:56:01;;;;;;;0.40;0.30;;;12.70;99.90;;;;;;6057351;23;20026;-86
2022/09/26 06:58:27;;;;;;;0.73;0.40;;;12.70;99.90;;;;;;6061683;23;20322;-85
2022/09/26 07:00:55;;;;;;;0.60;0.50;;;12.70;99.90;;;;;;6061741;23;20082;-86
2022/09/26 07:03:24;;;;;;;0.63;0.28;;;12.80;99.90;;;;;;6061147;23;20026;-87
2022/09/26 07:05:54;;;;;;;0.98;0.50;;;12.80;99.90;;;;;;6087341;23;20285;-86
2022/09/26 07:08:21;;;;;;;1.00;0.40;;;12.80;99.90;;;;;;6062412;23;20024;-86
2022/09/26 07:11:03;;;;;;;0.30;0.30;;;12.90;99.90;;;;;;6069206;23;20026;-86
2022/09/26 07:13:50;;;;;;;1.20;0.45;;;12.90;99.90;;;;;;6069372;23;20018;-85
2022/09/26 07:16:17;;;;;;;0.82;0.38;;;12.80;99.90;;;;;;6060581;23;20469;-83
2022/09/26 07:18:44;;;;;;;1.00;0.40;;;12.80;99.90;;;;;;6084180;23;20340;-83
2022/09/26 07:21:11;;;;;;;0.52;0.30;;;12.80;99.90;;;;;;6060079;23;20211;-84
2022/09/26 07:23:38;;;;;;;0.20;0.20;;;12.80;99.90;;;;;;6059663;23;20018;-84
2022/09/26 07:26:05;;;;;;;0.40;0.32;;;12.80;99.90;;;;;;6060106;23;20327;-84
2022/09/26 07:28:32;;;;;;;0.30;0.22;;;12.80;99.90;;;;;;6060578;23;20089;-84
2022/09/26 07:31:00;;;;;;;0.77;0.50;;;12.80;99.90;;;;;;6061140;23;20453;-85
2022/09/26 07:33:27;;;;;;;0.28;0.22;;;12.90;99.90;;;;;;6060165;23;20113;-85
2022/09/26 07:35:55;;;;;;;0.40;0.30;;;12.90;99.90;;;;;;6061345;23;20115;-85
2022/09/26 07:38:23;;;;;;;0.38;0.30;;;12.80;99.90;;;;;;6060642;23;20123;-86
2022/09/26 07:40:53;;;;;;;0.57;0.40;;;12.80;99.90;;;;;;6061418;23;20018;-86
2022/09/26 07:43:20;;;;;;;0.50;0.32;;;12.90;99.90;;;;;;6061625;23;20224;-86
2022/09/26 07:51:38;;;;;;;0.60;0.50;;;13.00;99.90;;;;;;6089052;23;20018;-87
2022/09/26 07:54:05;;;;;;;0.70;0.30;;;13.00;99.90;;;;;;6061465;23;20299;-85
2022/09/26 07:56:34;;;;;;;0.50;0.43;;;13.00;99.90;;;;;;6085599;23;20026;-85
2022/09/26 07:59:04;;;;;;;0.40;0.30;;;13.00;99.90;;;;;;6086403;23;20589;-85
2022/09/26 08:01:31;;;;;;;0.82;0.52;;;13.00;99.90;;;;;;6061914;23;20105;-85
2022/09/26 08:03:58;;;;;;;1.85;0.60;;;13.00;99.90;;;;;;6061925;23;20388;-86
2022/09/26 08:06:26;;;;;;;2.25;0.70;;;13.00;99.90;;;;;;6062681;23;20086;-85
2022/09/26 08:08:54;;;;;;;1.02;0.60;;;13.00;99.90;;;;;;6086314;23;20294;-85
2022/09/26 08:11:21;;;;;;;1.90;0.70;;;13.10;99.90;;;;;;6061986;23;20022;-86
2022/09/26 08:13:48;;;;;;;2.58;0.43;;;13.10;99.90;;;;;;6062614;23;20021;-85
2022/09/26 08:16:19;;;;;;;1.92;1.00;;;13.20;99.90;;;;;;6061612;23;20117;-86
2022/09/26 08:18:46;;;;;;;0.85;0.57;;;13.20;99.90;;;;;;6063192;23;20101;-87
2022/09/26 08:21:13;;;;;;;1.27;0.60;;;13.30;99.90;;;;;;6063784;23;20025;-87
2022/09/26 08:23:40;;;;;;;1.55;0.47;;;13.40;99.90;;;;;;6062501;23;20101;-87
2022/09/26 08:26:07;;;;;;;1.90;0.80;;;13.50;99.90;;;;;;6062970;23;20137;-86
2022/09/26 08:28:35;;;;;;;1.75;0.63;;;13.70;99.90;;;;;;6064645;23;20030;-86
2022/09/26 08:31:03;;;;;;;3.80;0.93;;;13.80;99.90;;;;;;6065292;23;20025;-87
2022/09/26 08:33:33;;;;;;;2.15;0.98;;;13.90;99.90;;;;;;6065295;23;20021;-87
2022/09/26 08:36:08;;;;;;;2.85;1.40;;;13.90;99.90;;;;;;6084690;23;20140;-87
2022/09/26 08:38:35;;;;;;;1.65;0.82;;;13.90;99.90;;;;;;6062030;23;20087;-87
2022/09/26 08:41:08;;;;;;;2.72;1.00;;;14.00;99.90;;;;;;6062033;23;20101;-87
2022/09/26 08:43:40;;;;;;;;;;;13.90;99.90;;;;;;6062002;23;20096;-89
2022/09/26 08:46:42;;;;;;;3.17;1.10;;;13.80;99.90;;;;;;6063114;23;19928;-87
2022/09/26 08:49:54;;;;;;;4.20;1.40;;;13.70;99.90;;;;;;6065762;23;20022;-87
2022/09/26 08:52:39;;;;;;;5.65;1.40;;;13.80;99.90;;;;;;6063466;23;20021;-87
2022/09/26 08:55:20;;;;;;;3.53;1.55;;;13.90;99.90;;;;;;6086422;23;20484;-88
2022/09/26 08:58:06;;;;;;;3.75;1.48;;;14.00;99.90;;;;;;6063695;23;20462;-88
2022/09/26 09:00:36;;;;;;;3.65;1.35;;;14.20;99.90;;;;;;6085922;23;20017;-88
2022/09/26 09:03:10;;;;;;;4.05;1.65;;;14.30;99.90;;;;;;6063550;23;20534;-89
2022/09/26 09:05:52;;;;;;;6.82;2.03;;;14.30;99.90;;;;;;6088023;23;20045;-88
2022/09/26 09:08:24;;;;;;;4.93;2.50;;;14.40;99.90;;;;;;6063707;23;20188;-87
2022/09/26 09:10:50;;;;;;;5.00;2.00;;;14.50;99.90;;;;;;6064633;23;20032;-89
2022/09/26 09:13:20;;;;;;;3.75;1.45;;;14.70;99.90;;;;;;6087414;23;20133;-86
2022/09/26 09:16:17;;;;;;;5.88;1.92;;;14.80;99.90;;;;;;6089513;23;20085;-86
2022/09/26 09:18:50;;;;;;;5.60;1.83;;;14.80;99.90;;;;;;6064652;23;20089;-87
2022/09/26 09:21:38;;;;;;;4.95;1.85;;;14.90;99.90;;;;;;6088467;23;20085;-87
2022/09/26 09:24:44;;;;;;;5.07;1.70;;;14.90;99.90;;;;;;6065978;23;20026;-87
2022/09/26 09:27:20;;;;;;;;;;;14.90;99.90;;;;;;6116085;23;20032;-86
2022/09/26 09:30:18;;;;;;;9.27;2.92;;;14.90;99.90;;;;;;6093329;23;19916;-87
2022/09/26 09:33:10;;;;;;;4.43;2.10;;;14.90;99.90;;;;;;6062626;23;20466;-86
2022/09/26 09:35:42;;;;;;;8.40;2.90;;;14.90;99.90;;;;;;6063466;23;20112;-86
2022/09/26 09:38:19;;;;;;;5.28;2.17;;;14.80;99.90;;;;;;6062795;23;20161;-87
2022/09/26 09:40:58;;;;;;;7.18;2.70;;;14.90;99.90;;;;;;6063769;23;20029;-86
2022/09/26 09:43:47;;;;;;;6.93;2.58;;;15.00;99.90;;;;;;6063447;23;20057;-85
2022/09/26 09:46:16;;;;;;;7.13;2.47;;;15.10;99.90;;;;;;6062914;23;20022;-84
2022/09/26 09:48:45;;;;;;;4.57;1.73;;;15.20;99.90;;;;;;6062813;23;20525;-86
2022/09/26 09:51:25;;;;;;;6.45;2.40;;;15.30;99.90;;;;;;6063352;23;20352;-85
2022/09/26 09:54:29;;;;;;;7.80;2.40;;;15.40;99.90;;;;;;6085904;23;20101;-86
2022/09/26 09:57:14;;;;;;;;;;;15.40;99.90;;;;;;6087072;23;20037;-84
2022/09/26 09:59:47;;;;;;;10.05;2.78;;;15.50;99.90;;;;;;6112613;23;19944;-86
2022/09/26 10:02:39;;;;;;;6.50;2.50;;;15.40;99.90;;;;;;6084728;23;20494;-85
2022/09/26 10:05:22;;;;;;;7.95;3.33;;;15.40;99.90;;;;;;6085981;23;20455;-85
2022/09/26 10:07:56;;;;;;;6.80;2.45;;;15.30;99.90;;;;;;6084920;23;20113;-84
2022/09/26 10:11:02;;;;;;;7.22;2.90;;;15.30;99.90;;;;;;6063353;23;20033;-85
2022/09/26 10:13:30;;;;;;;8.48;3.47;;;15.20;99.90;;;;;;6079444;23;20025;-84
2022/09/26 10:16:01;;;;;;;8.35;2.72;;;15.10;99.90;;;;;;6085121;23;20523;-86
2022/09/26 10:18:29;;;;;;;8.00;2.67;;;15.10;99.90;;;;;;6060652;23;20045;-84
2022/09/26 10:21:05;;;;;;;7.03;2.97;;;15.00;99.90;;;;;;6085489;23;20037;-84
2022/09/26 10:23:44;;;;;;;10.40;3.15;;;15.00;99.90;;;;;;6061588;23;20045;-84
2022/09/26 10:26:12;;;;;;;8.70;3.28;;;14.90;99.90;;;;;;6084930;23;20118;-84
2022/09/26 10:28:47;;;;;;;8.65;3.08;;;15.00;99.90;;;;;;6062307;23;20100;-84
2022/09/26 10:31:37;;;;;;;7.88;2.92;;;15.00;99.90;;;;;;6085004;23;20421;-84
2022/09/26 10:34:26;;;;;;;5.85;2.70;;;15.20;99.90;;;;;;6085399;23;20041;-85
2022/09/26 10:36:54;;;;;;;5.50;2.28;;;15.50;99.90;;;;;;6083447;23;20444;-84
2022/09/26 10:42:17;;;;;;;5.53;1.90;;;15.50;99.90;;;;;;6090102;23;20287;-84
2022/09/26 10:44:46;;;;;;;8.82;3.35;;;15.50;99.90;;;;;;6061211;23;20347;-84
2022/09/26 10:47:18;;;;;;;9.10;3.25;;;15.30;99.90;;;;;;6084460;23;20713;-84
2022/09/26 10:49:50;;;;;;;6.95;3.38;;;15.30;99.90;;;;;;6060899;23;20022;-84
2022/09/26 10:52:30;;;;;;;7.25;2.55;;;15.30;99.90;;;;;;6084218;23;20036;-84
2022/09/26 10:55:10;;;;;;;8.45;3.00;;;15.50;99.90;;;;;;6085027;23;20105;-85
2022/09/26 10:57:44;;;;;;;10.00;3.40;;;15.60;99.90;;;;;;6084453;23;20061;-84
2022/09/26 11:00:51;;;;;;;9.13;3.53;;;15.70;99.90;;;;;;6061617;23;20097;-84
2022/09/26 11:03:31;;;;;;;7.60;2.70;;;16.00;99.90;;;;;;5968314;23;20107;-84
2022/09/26 11:05:59;;;;;;;8.73;2.83;;;16.20;99.90;;;;;;6030986;23;20033;-84
2022/09/26 11:08:31;;;;;;;7.18;3.30;;;16.10;99.90;;;;;;6084063;23;20438;-84
2022/09/26 11:11:10;;;;;;;5.82;2.35;;;16.10;99.90;;;;;;6083875;23;20125;-84
2022/09/26 11:13:55;;;;;;;5.25;2.35;;;16.00;99.90;;;;;;6060659;23;20344;-84
2022/09/26 11:16:22;;;;;;;6.65;2.85;;;15.80;99.90;;;;;;6083717;23;20029;-84
2022/09/26 11:19:09;;;;;;;5.68;2.50;;;15.70;99.90;;;;;;6060662;23;20029;-84
2022/09/26 11:21:57;;;;;;;6.57;2.80;;;15.80;99.90;;;;;;6060223;23;20470;-84
2022/09/26 11:24:44;;;;;;;7.35;2.83;;;15.80;99.90;;;;;;6083353;23;20018;-85
2022/09/26 11:27:20;;;;;;;6.18;2.22;;;16.00;99.90;;;;;;6084276;23;20393;-84
2022/09/26 11:30:11;;;;;;;5.95;2.42;;;16.00;99.90;;;;;;6110486;23;20033;-85
2022/09/26 11:32:40;;;;;;;6.55;2.50;;;16.00;99.90;;;;;;6087029;23;20112;-85
2022/09/26 11:35:32;;;;;;;7.68;2.55;;;15.80;99.90;;;;;;6084328;23;20378;-84
2022/09/26 11:38:39;;;;;;;5.85;2.40;;;15.80;99.90;;;;;;6082763;23;20602;-84
2022/09/26 11:41:42;;;;;;;6.88;2.08;;;15.80;99.90;;;;;;6110173;23;20444;-84
2022/09/26 11:44:20;;;;;;;5.22;1.75;;;15.80;99.90;;;;;;6005216;23;20605;-84
2022/09/26 11:47:28;;;;;;;5.95;1.70;;;15.90;99.90;;;;;;6083066;23;20107;-83
2022/09/26 11:50:20;;;;;;;6.07;2.53;;;16.00;99.90;;;;;;6084276;23;20025;-84
2022/09/26 11:52:50;;;;;;;5.45;2.28;;;16.00;99.90;;;;;;6082927;23;20081;-84
2022/09/26 11:55:20;;;;;;;5.32;2.03;;;16.00;99.90;;;;;;6083755;23;20022;-84
2022/09/26 11:58:09;;;;;;;6.45;1.92;;;16.10;99.90;;;;;;6084715;23;20037;-84
2022/09/26 12:01:15;;;;;;;3.65;1.77;;;16.30;99.90;;;;;;6059040;23;20048;-84
2022/09/26 12:04:05;;;;;;;4.20;1.75;;;16.50;99.90;;;;;;6079956;23;20046;-84
2022/09/26 12:06:40;;;;;;;4.22;2.00;;;16.50;99.90;;;;;;6081732;23;20101;-87
2022/09/26 12:09:32;;;;;;;4.72;1.83;;;16.70;99.90;;;;;;6084401;23;20428;-86
2022/09/26 12:12:08;;;;;;;3.30;1.60;;;16.80;99.90;;;;;;6057912;23;20027;-86
2022/09/26 12:14:53;;;;;;;4.03;2.33;;;16.80;99.90;;;;;;6080107;23;20791;-86
2022/09/26 12:17:42;;;;;;;6.40;1.95;;;16.70;99.90;;;;;;6089989;23;20501;-88
2022/09/26 12:20:25;;;;;;;4.50;1.73;;;16.30;99.90;;;;;;6068087;23;20023;-88
2022/09/26 12:22:58;;;;;;;;;;;16.00;99.90;;;;;;6092269;23;20025;-88
2022/09/26 12:25:40;;;;;;;4.47;2.10;;;15.90;99.90;;;;;;6090089;23;20008;-89
2022/09/26 12:28:34;;;;;;;5.00;1.85;;;15.70;99.90;;;;;;6082532;23;20018;-88
2022/09/26 12:31:23;;;;;;;4.22;1.58;;;15.50;99.90;;;;;;6082914;23;20105;-88
2022/09/26 12:34:11;;;;;;;3.40;1.40;;;15.30;99.90;;;;;;6081370;23;20023;-88
2022/09/26 12:37:08;;;;;;;5.30;1.70;;;15.20;99.90;;;;;;6056893;23;20054;-87
2022/09/26 12:40:05;;;;;;;2.88;1.30;;;15.10;99.90;;;;;;6058552;23;20065;-87
2022/09/26 12:42:57;;;;;;;2.28;1.08;;;14.80;99.90;;;;;;6058177;23;20022;-88
2022/09/26 12:45:34;;;;;;;2.55;0.82;;;14.60;99.90;;;;;;6079664;23;20430;-85
2022/09/26 12:48:16;;;;;;;3.00;1.20;;;14.70;99.90;;;;;;6081585;23;20110;-88
2022/09/26 12:50:57;;;;;;;2.53;1.00;;;14.90;99.90;;;;;;6082682;23;20041;-88
2022/09/26 12:53:45;;;;;;;2.42;0.93;;;15.40;99.90;;;;;;6082653;23;20313;-89
2022/09/26 12:56:40;;;;;;;1.70;0.75;;;15.60;99.90;;;;;;6058908;23;20029;-88
2022/09/26 12:59:13;;;;;;;1.98;1.15;;;15.80;99.90;;;;;;6083552;23;20037;-87
2022/09/26 13:01:49;;;;;;;1.70;0.77;;;16.20;99.90;;;;;;6081921;23;20073;-87
2022/09/26 13:04:27;;;;;;;1.83;0.82;;;16.80;99.90;;;;;;6098361;23;20524;-87
2022/09/26 13:07:09;;;;;;;0.90;0.68;;;17.70;99.90;;;;;;6061442;23;20049;-88
2022/09/26 13:09:56;;;;;;;0.73;0.70;;;18.10;99.90;;;;;;6088979;23;20086;-88
2022/09/26 13:12:46;;;;;;;0.82;0.60;;;17.80;99.90;;;;;;6066011;23;20022;-87
2022/09/26 13:15:19;;;;;;;2.67;1.20;;;17.30;99.90;;;;;;6089676;23;20026;-87
2022/09/26 13:17:47;;;;;;;;;;;16.80;99.90;;;;;;6092466;23;20029;-87
2022/09/26 13:20:42;;;;;;;1.98;0.90;;;16.60;99.90;;;;;;6069316;23;19924;-87
2022/09/26 13:23:26;;;;;;;3.20;1.08;;;16.50;99.90;;;;;;6093062;23;20032;-87
2022/09/26 13:26:15;;;;;;;2.40;1.15;;;16.40;99.90;;;;;;6091165;23;20086;-88
2022/09/26 13:28:53;;;;;;;1.48;0.85;;;16.20;99.90;;;;;;6090872;23;20113;-87
2022/09/26 13:31:54;;;;;;;1.40;0.80;;;16.10;99.90;;;;;;6097572;23;20046;-87
2022/09/26 13:34:38;;;;;;;2.22;0.80;;;16.20;99.90;;;;;;6094901;23;20049;-87
2022/09/26 13:37:13;;;;;;;1.55;0.70;;;16.60;99.90;;;;;;6069142;23;20022;-87
2022/09/26 13:40:16;;;;;;;1.90;0.88;;;17.20;99.90;;;;;;6069390;23;20506;-86